Time;durP1;ratioP1;P1;durP2;ratioP2;P2;SDS_P1;SDS_P2;PMS_P1;PMS_P2;Temp;Humidity;BMP_temperature;BMP_pressure;BME280_temperature;BME280_humidity;BME280_pressure;Samples;Min_cycle;Max_cycle;Signal;HPM_P1;HPM_P2
2022/12/22 03:25:56;;;;;;;;;;;;;;;17.91;46.43;99837.88;5113477;28;20375;-58
2022/12/22 03:28:23;;;;;;;;;;;;;;;17.90;46.21;99839.81;5128722;28;19930;-59
2022/12/22 03:30:53;;;;;;;;;;;;;;;17.89;46.36;99821.66;5110361;28;20427;-58
2022/12/22 03:33:19;;;;;;;;;;;;;;;17.89;46.48;99816.13;5112529;28;19971;-58
2022/12/22 03:35:44;;;;;;;;;;;;;;;17.90;46.54;99816.94;5110847;28;19927;-58
2022/12/22 03:38:10;;;;;;;;;;;;;;;17.90;46.44;99814.19;5129197;28;20338;-59
2022/12/22 03:40:36;;;;;;;;;;;;;;;17.89;46.60;99816.13;5133517;27;19954;-58
2022/12/22 03:48:32;;;;;;;;;;;;;;;17.90;46.45;99806.75;5112997;28;20418;-58
2022/12/22 03:50:58;;;;;;;;;;;;;;;17.90;46.53;99805.94;5136867;27;19923;-59
2022/12/22 03:53:23;;;;;;;;;;;;;;;17.90;46.46;99800.44;5136984;27;19947;-58
2022/12/22 03:55:49;;;;;;;;;;;;;;;17.89;46.47;99801.56;5129120;28;19924;-59
2022/12/22 03:58:14;;;;;;;;;;;;;;;17.90;46.42;99794.91;5128420;28;20291;-58
2022/12/22 04:00:40;;;;;;;;;;;;;;;17.89;46.47;99796.84;5134304;27;19927;-59
2022/12/22 04:03:05;;;;;;;;;;;;;;;17.89;46.44;99791.34;5139762;27;19976;-58
2022/12/22 04:05:31;;;;;;;;;;;;;;;17.88;46.41;99784.22;5128474;28;19972;-58
2022/12/22 04:07:57;;;;;;;;;;;;;;;17.89;46.32;99790.53;5127460;27;19931;-59
2022/12/22 04:13:08;;;;;;;;;;;;;;;17.89;46.50;99779.53;5120432;28;20375;-59
2022/12/22 04:15:33;;;;;;;;;;;;;;;17.89;46.48;99771.25;5127727;28;19923;-59
2022/12/22 04:17:59;;;;;;;;;;;;;;;17.88;46.42;99775.13;5127745;28;19976;-58
2022/12/22 04:20:26;;;;;;;;;;;;;;;17.89;46.55;99768.50;5131611;27;19927;-59
2022/12/22 04:22:52;;;;;;;;;;;;;;;17.89;46.50;99774.00;5123942;28;19974;-59
2022/12/22 04:25:18;;;;;;;;;;;;;;;17.89;46.42;99768.50;5109602;28;20401;-59
2022/12/22 04:27:43;;;;;;;;;;;;;;;17.88;46.39;99769.63;5109424;28;19923;-59
2022/12/22 04:30:09;;;;;;;;;;;;;;;17.88;46.44;99762.19;5128570;27;19923;-58
2022/12/22 04:32:35;;;;;;;;;;;;;;;17.88;46.30;99762.19;5145112;27;19923;-58
2022/12/22 04:35:00;;;;;;;;;;;;;;;17.89;46.56;99760.25;5110064;28;19935;-59
2022/12/22 04:37:26;;;;;;;;;;;;;;;17.88;46.48;99761.38;5128109;28;19923;-59
2022/12/22 04:39:51;;;;;;;;;;;;;;;17.88;46.58;99759.44;5127489;28;19934;-58
2022/12/22 04:42:17;;;;;;;;;;;;;;;17.88;46.40;99758.59;5132382;27;20294;-58
2022/12/22 04:44:42;;;;;;;;;;;;;;;17.87;46.59;99752.25;5127738;28;19931;-59
2022/12/22 04:47:08;;;;;;;;;;;;;;;17.87;46.60;99755.00;5127583;28;19924;-58
2022/12/22 04:49:34;;;;;;;;;;;;;;;17.87;46.46;99752.25;5126999;28;20280;-58
2022/12/22 04:51:59;;;;;;;;;;;;;;;17.87;46.59;99757.75;5143921;27;19934;-58
2022/12/22 04:54:25;;;;;;;;;;;;;;;17.88;46.56;99753.09;5129187;27;19923;-58
2022/12/22 04:56:51;;;;;;;;;;;;;;;17.88;46.46;99753.09;5127466;28;19923;-58
2022/12/22 04:59:16;;;;;;;;;;;;;;;17.87;46.50;99752.25;5126862;28;19967;-59
2022/12/22 05:01:42;;;;;;;;;;;;;;;17.88;46.39;99747.59;5127371;27;19935;-58
2022/12/22 05:04:08;;;;;;;;;;;;;;;17.87;46.45;99746.75;5132601;27;20282;-58
2022/12/22 05:06:33;;;;;;;;;;;;;;;17.88;46.41;99744.84;5127289;28;19954;-58
2022/12/22 05:08:59;;;;;;;;;;;;;;;17.87;46.39;99745.94;5127356;28;19984;-58
2022/12/22 05:11:24;;;;;;;;;;;;;;;17.87;46.38;99744.00;5128468;27;19950;-59
2022/12/22 05:13:50;;;;;;;;;;;;;;;17.87;46.45;99746.75;5132803;27;19928;-59
2022/12/22 05:16:16;;;;;;;;;;;;;;;17.87;46.47;99740.41;5127610;28;19938;-59
2022/12/22 05:18:42;;;;;;;;;;;;;;;17.87;46.45;99734.91;5125391;27;19946;-58
2022/12/22 05:21:09;;;;;;;;;;;;;;;17.86;46.42;99734.09;5120811;27;19967;-59
2022/12/22 05:23:34;;;;;;;;;;;;;;;17.86;46.55;99739.59;5131915;27;19928;-58
2022/12/22 05:26:00;;;;;;;;;;;;;;;17.87;46.47;99746.75;5127369;28;19958;-59
2022/12/22 05:28:25;;;;;;;;;;;;;;;17.86;46.59;99747.06;5127043;28;19938;-59
2022/12/22 05:30:52;;;;;;;;;;;;;;;17.86;46.42;99731.34;5127146;28;19930;-59
2022/12/22 05:33:18;;;;;;;;;;;;;;;17.86;46.47;99731.34;5133483;27;20293;-58
2022/12/22 05:35:43;;;;;;;;;;;;;;;17.87;46.59;99734.91;5127346;28;19930;-58
2022/12/22 05:38:09;;;;;;;;;;;;;;;17.86;46.48;99739.59;5127168;28;20263;-59
2022/12/22 05:40:34;;;;;;;;;;;;;;;17.86;46.51;99736.03;5130845;27;19930;-58
2022/12/22 05:43:00;;;;;;;;;;;;;;;17.86;46.42;99731.34;5142920;27;20336;-58
2022/12/22 05:45:25;;;;;;;;;;;;;;;17.87;46.78;99740.41;5127176;28;19932;-59
2022/12/22 05:47:51;;;;;;;;;;;;;;;17.87;46.42;99743.19;5126816;28;19924;-58
2022/12/22 05:50:18;;;;;;;;;;;;;;;17.87;46.39;99743.19;5128745;27;19924;-59
2022/12/22 05:52:44;;;;;;;;;;;;;;;17.86;46.47;99745.13;5126268;27;20398;-59
2022/12/22 05:55:09;;;;;;;;;;;;;;;17.86;46.55;99742.38;5126680;28;19923;-59
2022/12/22 05:57:35;;;;;;;;;;;;;;;17.86;46.46;99742.38;5108706;28;19967;-58
2022/12/22 06:00:01;;;;;;;;;;;;;;;17.86;46.41;99747.06;5126107;28;20003;-58
2022/12/22 06:02:26;;;;;;;;;;;;;;;17.86;46.48;99750.63;5147155;27;20466;-58
2022/12/22 06:04:52;;;;;;;;;;;;;;;17.85;46.46;99753.69;5127381;27;20386;-59
2022/12/22 06:07:18;;;;;;;;;;;;;;;17.85;46.52;99754.50;5126647;28;20333;-58
2022/12/22 06:09:43;;;;;;;;;;;;;;;17.86;46.41;99760.84;5122181;28;19966;-58
2022/12/22 06:12:09;;;;;;;;;;;;;;;17.85;46.44;99754.50;5114068;27;20367;-58
2022/12/22 06:14:34;;;;;;;;;;;;;;;17.85;46.52;99756.44;5109488;28;19928;-59
2022/12/22 06:17:00;;;;;;;;;;;;;;;17.85;46.47;99760.00;5126813;28;19927;-59
2022/12/22 06:19:26;;;;;;;;;;;;;;;17.86;46.48;99758.06;5124078;28;20299;-58
2022/12/22 06:21:51;;;;;;;;;;;;;;;17.85;46.48;99757.25;5134896;27;19924;-58
2022/12/22 06:24:17;;;;;;;;;;;;;;;17.86;46.39;99763.59;5125243;27;19927;-58
2022/12/22 06:26:42;;;;;;;;;;;;;;;17.85;46.17;99762.78;5134274;27;20454;-58
2022/12/22 06:29:08;;;;;;;;;;;;;;;17.85;46.53;99760.00;5119551;27;19927;-58
2022/12/22 06:31:33;;;;;;;;;;;;;;;17.86;46.42;99763.59;5137267;27;19947;-58
2022/12/22 06:33:59;;;;;;;;;;;;;;;17.85;46.39;99760.00;5124663;27;19923;-58
2022/12/22 06:36:25;;;;;;;;;;;;;;;17.85;46.37;99762.78;5129204;28;19927;-58
2022/12/22 06:38:50;;;;;;;;;;;;;;;17.85;46.51;99770.22;5128292;28;20395;-58
2022/12/22 06:43:07;;;;;;;;;;;;;;;17.85;46.46;99773.78;5124828;27;19935;-58
2022/12/22 06:44:01;;;;;;;;;;;;;;;17.85;46.49;99779.28;5106667;28;20287;-58
2022/12/22 06:46:27;;;;;;;;;;;;;;;17.85;46.39;99778.47;5126126;28;19931;-58
2022/12/22 06:48:52;;;;;;;;;;;;;;;17.85;46.46;99787.56;5122251;27;19927;-58
2022/12/22 06:51:18;;;;;;;;;;;;;;;17.85;46.46;99786.75;5122949;27;19931;-58
2022/12/22 06:53:44;;;;;;;;;;;;;;;17.87;48.88;99792.75;5133151;27;20288;-58
2022/12/22 06:56:09;;;;;;;;;;;;;;;17.86;47.21;99794.69;5125965;28;19943;-58
2022/12/22 06:58:35;;;;;;;;;;;;;;;17.88;47.07;99797.16;5118285;28;20352;-58
2022/12/22 07:01:00;;;;;;;;;;;;;;;17.86;47.03;99800.19;5115519;28;19938;-58
2022/12/22 07:03:26;;;;;;;;;;;;;;;17.87;47.02;99798.25;5102663;27;19931;-58
2022/12/22 07:05:52;;;;;;;;;;;;;;;17.87;47.03;99807.34;5103708;28;19931;-58
2022/12/22 07:08:17;;;;;;;;;;;;;;;17.87;47.09;99801.84;5106230;28;19955;-58
2022/12/22 07:10:58;;;;;;;;;;;;;;;17.87;47.02;99809.28;5100343;27;19986;-58
2022/12/22 07:13:26;;;;;;;;;;;;;;;17.89;47.04;99820.84;5098319;28;19923;-59
2022/12/22 07:15:51;;;;;;;;;;;;;;;17.89;46.85;99824.41;5124360;27;20040;-59
2022/12/22 07:18:25;;;;;;;;;;;;;;;17.89;46.85;99829.91;5124193;27;19931;-58
2022/12/22 07:20:52;;;;;;;;;;;;;;;17.90;46.75;99842.56;5107988;28;19924;-58
2022/12/22 07:23:18;;;;;;;;;;;;;;;17.91;46.75;99843.38;5127408;27;19928;-58
2022/12/22 07:25:43;;;;;;;;;;;;;;;17.90;46.72;99848.06;5123245;28;20356;-58
2022/12/22 07:28:09;;;;;;;;;;;;;;;17.90;46.80;99861.03;5122494;28;19931;-59
2022/12/22 07:30:41;;;;;;;;;;;;;;;17.91;46.88;99863.47;5125493;27;19951;-59
2022/12/22 07:33:07;;;;;;;;;;;;;;;17.92;46.75;99875.31;5121013;27;19953;-58
2022/12/22 07:35:32;;;;;;;;;;;;;;;17.92;46.59;99886.31;5114003;28;19930;-58
2022/12/22 07:37:58;;;;;;;;;;;;;;;17.91;46.69;99893.78;5101688;28;19996;-59
2022/12/22 07:40:24;;;;;;;;;;;;;;;17.94;46.84;99900.63;5112639;27;20086;-59
2022/12/22 07:42:49;;;;;;;;;;;;;;;17.94;46.60;99903.38;5112981;27;20317;-58
2022/12/22 07:45:16;;;;;;;;;;;;;;;17.94;46.77;99912.47;5119681;27;20450;-59
2022/12/22 07:47:42;;;;;;;;;;;;;;;17.94;46.80;99917.16;5116115;28;19927;-60
2022/12/22 07:50:24;;;;;;;;;;;;;;;17.94;46.75;99926.25;5090432;27;19960;-58
2022/12/22 07:52:51;;;;;;;;;;;;;;;17.94;46.67;99920.72;5119634;27;20098;-58
2022/12/22 07:55:17;;;;;;;;;;;;;;;17.96;46.43;99925.94;5122454;27;20407;-58
2022/12/22 07:57:43;;;;;;;;;;;;;;;17.96;46.74;99929.53;5093020;28;19952;-59
2022/12/22 08:00:08;;;;;;;;;;;;;;;17.95;46.75;99936.13;5091911;27;19958;-58
2022/12/22 08:02:34;;;;;;;;;;;;;;;17.95;46.65;99938.88;5101945;27;20130;-58
2022/12/22 08:05:04;;;;;;;;;;;;;;;17.96;46.64;99936.94;5092127;27;19976;-58
2022/12/22 08:07:31;;;;;;;;;;;;;;;17.95;46.56;99933.38;5095136;27;19983;-59
2022/12/22 08:09:57;;;;;;;;;;;;;;;17.95;46.57;99938.06;5106742;27;19931;-59
2022/12/22 08:12:22;;;;;;;;;;;;;;;17.95;46.76;99933.38;5087286;28;19938;-59
2022/12/22 08:14:48;;;;;;;;;;;;;;;17.96;46.49;99940.56;5113309;27;19927;-58
2022/12/22 08:17:13;;;;;;;;;;;;;;;17.96;46.56;99953.47;5109269;28;19927;-58
2022/12/22 08:19:39;;;;;;;;;;;;;;;17.95;46.68;99966.44;5082791;28;20000;-59
2022/12/22 08:22:05;;;;;;;;;;;;;;;17.95;46.58;99968.38;5096350;27;19927;-58
2022/12/22 08:24:30;;;;;;;;;;;;;;;17.95;46.59;99979.41;5082308;27;20859;-59
2022/12/22 08:26:58;;;;;;;;;;;;;;;17.96;46.59;99983.78;5100633;27;20118;-58
2022/12/22 08:29:26;;;;;;;;;;;;;;;17.94;46.61;99997.84;5084860;28;20953;-59
2022/12/22 08:31:51;;;;;;;;;;;;;;;17.95;46.71;100009.69;5089665;27;19957;-60
2022/12/22 08:34:17;;;;;;;;;;;;;;;17.97;49.63;100013.00;5107930;27;20037;-56
2022/12/22 08:36:44;;;;;;;;;;;;;;;18.01;47.36;100019.56;5113773;28;19942;-58
2022/12/22 08:39:10;;;;;;;;;;;;;;;17.99;47.38;100025.34;5118530;27;19927;-59
2022/12/22 08:41:50;;;;;;;;;;;;;;;17.97;47.54;100022.06;5131165;27;20382;-58
2022/12/22 08:44:17;;;;;;;;;;;;;;;18.02;48.11;100021.19;5120682;27;19928;-59
2022/12/22 08:46:43;;;;;;;;;;;;;;;18.02;47.51;100030.28;5098608;28;19972;-58
2022/12/22 08:49:09;;;;;;;;;;;;;;;18.01;47.57;100036.09;5093553;27;19979;-58
2022/12/22 08:51:34;;;;;;;;;;;;;;;18.00;47.61;100034.41;5119759;27;19923;-59
2022/12/22 08:54:00;;;;;;;;;;;;;;;17.99;47.56;100041.88;5125100;27;20411;-59
2022/12/22 08:56:31;;;;;;;;;;;;;;;18.00;47.58;100045.44;5121821;27;19934;-59
2022/12/22 08:58:56;;;;;;;;;;;;;;;18.00;47.54;100053.69;5114075;27;19927;-59
2022/12/22 09:01:22;;;;;;;;;;;;;;;18.00;47.58;100065.56;5114104;27;20559;-58
2022/12/22 09:03:48;;;;;;;;;;;;;;;18.01;47.57;100071.91;5092308;27;20023;-58
2022/12/22 09:06:14;;;;;;;;;;;;;;;18.01;47.48;100069.16;5113196;27;19999;-58
2022/12/22 09:08:40;;;;;;;;;;;;;;;18.01;47.43;100072.72;5112062;27;19928;-59
2022/12/22 09:11:05;;;;;;;;;;;;;;;18.01;47.36;100083.75;5107673;27;20640;-59
2022/12/22 09:13:31;;;;;;;;;;;;;;;18.02;47.27;100087.31;5114431;27;19928;-58
2022/12/22 09:15:56;;;;;;;;;;;;;;;18.03;47.24;100094.44;5114519;27;19935;-59
2022/12/22 09:18:22;;;;;;;;;;;;;;;18.03;47.39;100097.22;5110809;27;19963;-60
2022/12/22 09:20:53;;;;;;;;;;;;;;;18.02;47.21;100101.91;5109837;27;19932;-58
2022/12/22 09:23:18;;;;;;;;;;;;;;;18.03;47.35;100099.97;5097311;28;19931;-59
2022/12/22 09:25:44;;;;;;;;;;;;;;;18.03;47.31;100102.72;5108202;28;19928;-59
2022/12/22 09:28:10;;;;;;;;;;;;;;;18.03;47.28;100097.22;5109406;28;19928;-59
2022/12/22 09:30:36;;;;;;;;;;;;;;;18.03;47.38;100105.47;5112198;27;19978;-58
2022/12/22 09:33:01;;;;;;;;;;;;;;;18.03;47.34;100100.78;5109027;27;19931;-58
2022/12/22 09:35:27;;;;;;;;;;;;;;;18.04;47.34;100115.38;5107437;28;19938;-58
2022/12/22 09:37:53;;;;;;;;;;;;;;;18.04;47.30;100127.22;5109892;27;19927;-58
2022/12/22 09:40:20;;;;;;;;;;;;;;;18.07;48.30;100144.28;5108311;27;19958;-59
2022/12/22 09:42:46;;;;;;;;;;;;;;;18.08;47.60;100152.25;5109538;28;20016;-59
2022/12/22 09:45:18;;;;;;;;;;;;;;;18.09;47.69;100153.06;5110411;27;19988;-58
2022/12/22 09:47:45;;;;;;;;;;;;;;;18.07;47.66;100164.41;5101984;27;19958;-58
2022/12/22 09:50:11;;;;;;;;;;;;;;;18.04;49.07;100159.47;5111694;27;19966;-58
2022/12/22 09:52:39;;;;;;;;;;;;;;;18.07;48.63;100166.31;5117172;28;20351;-56
2022/12/22 09:55:25;;;;;;;;;;;;;;;18.07;48.75;100171.84;5111095;28;19951;-55
2022/12/22 09:57:52;;;;;;;;;;;;;;;18.07;48.58;100175.41;5093874;27;20658;-56
2022/12/22 10:00:18;;;;;;;;;;;;;;;18.09;48.75;100178.72;5097968;27;19956;-57
2022/12/22 10:03:00;;;;;;;;;;;;;;;18.11;49.25;100176.47;5114626;27;20318;-58
2022/12/22 10:05:42;;;;;;;;;;;;;;;18.17;49.26;100185.50;5116377;27;20393;-58
2022/12/22 10:08:09;;;;;;;;;;;;;;;18.15;49.70;100188.56;5115330;27;19927;-57
2022/12/22 10:10:34;;;;;;;;;;;;;;;18.14;49.37;100202.63;5116951;27;19957;-57
2022/12/22 10:13:01;;;;;;;;;;;;;;;18.15;48.96;100201.53;5116799;27;19928;-57
2022/12/22 10:15:26;;;;;;;;;;;;;;;18.15;49.09;100210.59;5100534;27;20399;-55
2022/12/22 10:17:53;;;;;;;;;;;;;;;18.17;51.20;100205.59;5117844;27;20200;-58
2022/12/22 10:20:21;;;;;;;;;;;;;;;18.21;49.79;100209.44;5116637;27;19955;-58
2022/12/22 10:22:48;;;;;;;;;;;;;;;18.21;49.96;100209.44;5097776;27;19927;-58
2022/12/22 10:25:33;;;;;;;;;;;;;;;18.20;50.03;100210.53;5104267;28;20371;-59
2022/12/22 10:28:20;;;;;;;;;;;;;;;18.19;50.01;100217.19;5103831;27;19931;-58
2022/12/22 10:30:45;;;;;;;;;;;;;;;18.19;49.90;100213.59;5111179;27;19943;-59
2022/12/22 10:33:12;;;;;;;;;;;;;;;18.20;49.92;100221.56;5084906;28;19932;-59
2022/12/22 10:35:54;;;;;;;;;;;;;;;18.20;49.94;100215.25;5096774;28;19943;-60
2022/12/22 10:38:39;;;;;;;;;;;;;;;18.20;49.60;100209.72;5099106;28;19999;-58
2022/12/22 10:41:20;;;;;;;;;;;;;;;18.21;49.94;100217.69;5101341;28;19927;-58
2022/12/22 10:43:50;;;;;;;;;;;;;;;18.23;49.86;100222.94;5117084;27;20333;-58
2022/12/22 10:46:15;;;;;;;;;;;;;;;18.20;51.26;100218.81;5100289;28;19931;-59
2022/12/22 10:48:41;;;;;;;;;;;;;;;18.24;49.86;100227.31;5114161;27;20000;-59
2022/12/22 10:51:07;;;;;;;;;;;;;;;18.23;50.03;100223.75;5093676;27;19976;-59
2022/12/22 10:53:41;;;;;;;;;;;;;;;18.23;50.07;100222.94;5118567;27;19935;-59
2022/12/22 10:56:07;;;;;;;;;;;;;;;18.23;49.91;100228.44;5106766;28;19963;-59
2022/12/22 10:58:45;;;;;;;;;;;;;;;18.24;49.88;100235.59;5097526;28;19932;-59
2022/12/22 11:01:10;;;;;;;;;;;;;;;18.23;49.61;100248.56;5106496;27;20154;-58
2022/12/22 11:03:36;;;;;;;;;;;;;;;18.22;49.71;100252.44;5116110;27;19988;-59
2022/12/22 11:06:04;;;;;;;;;;;;;;;18.23;49.62;100247.75;5116248;27;19954;-58
2022/12/22 11:08:30;;;;;;;;;;;;;;;18.23;49.64;100253.25;5106568;27;20234;-58
2022/12/22 11:10:57;;;;;;;;;;;;;;;18.23;49.47;100254.06;5121956;27;19927;-58
2022/12/22 11:13:36;;;;;;;;;;;;;;;18.24;49.47;100257.66;5118450;27;20535;-59
2022/12/22 11:16:03;;;;;;;;;;;;;;;18.23;49.60;100258.75;5122057;27;20272;-58
2022/12/22 11:18:48;;;;;;;;;;;;;;;18.25;49.52;100265.63;5118545;27;20175;-59
2022/12/22 11:21:17;;;;;;;;;;;;;;;18.25;49.60;100267.56;5099086;27;19981;-59
2022/12/22 11:23:53;;;;;;;;;;;;;;;18.25;49.26;100270.31;5120875;27;19931;-58
2022/12/22 11:26:22;;;;;;;;;;;;;;;18.25;49.35;100287.66;5103006;28;19931;-59
2022/12/22 11:29:08;;;;;;;;;;;;;;;18.25;49.29;100284.09;5125446;27;19934;-59
2022/12/22 11:31:38;;;;;;;;;;;;;;;18.27;49.18;100290.97;5106407;28;20412;-59
2022/12/22 11:34:09;;;;;;;;;;;;;;;18.26;49.12;100291.25;5123966;27;19966;-59
2022/12/22 11:36:54;;;;;;;;;;;;;;;18.25;49.13;100287.66;5100991;27;19931;-59
2022/12/22 11:39:28;;;;;;;;;;;;;;;18.39;49.90;100292.50;5090869;28;21021;-58
2022/12/22 11:41:58;;;;;;;;;;;;;;;18.35;49.26;100296.94;5116861;27;20387;-58
2022/12/22 11:44:27;;;;;;;;;;;;;;;18.32;49.43;100298.38;5118710;27;19932;-58
2022/12/22 11:47:02;;;;;;;;;;;;;;;18.30;49.28;100301.38;5112998;27;20252;-58
2022/12/22 11:49:33;;;;;;;;;;;;;;;18.32;49.30;100297.53;5116161;27;19996;-59
2022/12/22 11:52:19;;;;;;;;;;;;;;;18.30;49.29;100308.84;5120810;27;19931;-59
2022/12/22 11:54:54;;;;;;;;;;;;;;;18.30;49.23;100315.16;5097834;27;20378;-59
2022/12/22 11:57:39;;;;;;;;;;;;;;;18.30;49.13;100315.16;5123452;28;20300;-59
2022/12/22 12:00:13;;;;;;;;;;;;;;;18.31;49.18;100307.75;5105229;27;19939;-58
2022/12/22 12:02:43;;;;;;;;;;;;;;;18.30;49.11;100309.66;5116452;27;19927;-59
2022/12/22 12:05:28;;;;;;;;;;;;;;;18.31;49.12;100310.50;5121739;27;19924;-59
2022/12/22 12:08:14;;;;;;;;;;;;;;;18.32;49.21;100312.16;5104584;28;19970;-58
2022/12/22 12:10:41;;;;;;;;;;;;;;;18.31;49.21;100318.78;5105912;27;19969;-59
2022/12/22 12:13:11;;;;;;;;;;;;;;;18.32;49.12;100322.34;5129843;27;19928;-59
2022/12/22 12:15:39;;;;;;;;;;;;;;;18.32;48.95;100320.41;5114530;28;19924;-59
2022/12/22 12:18:10;;;;;;;;;;;;;;;18.32;48.92;100325.13;5128883;27;19935;-58
2022/12/22 12:20:38;;;;;;;;;;;;;;;18.33;48.91;100329.50;5126386;27;19966;-58
2022/12/22 12:23:23;;;;;;;;;;;;;;;18.32;49.05;100325.94;5121692;27;19978;-59
2022/12/22 12:25:53;;;;;;;;;;;;;;;18.33;48.83;100322.06;5107126;28;20569;-58
2022/12/22 12:28:29;;;;;;;;;;;;;;;18.33;48.84;100327.56;5122106;27;19978;-58
2022/12/22 12:30:56;;;;;;;;;;;;;;;18.33;48.95;100315.72;5122712;27;19967;-59
2022/12/22 12:33:33;;;;;;;;;;;;;;;18.34;48.82;100325.63;5113692;28;19927;-59
2022/12/22 12:36:02;;;;;;;;;;;;;;;18.34;48.83;100339.41;5117966;27;20456;-58
2022/12/22 12:38:29;;;;;;;;;;;;;;;18.34;48.72;100331.97;5098519;27;19931;-58
2022/12/22 12:41:32;;;;;;;;;;;;;;;18.34;48.71;100329.19;5101983;27;19934;-59
2022/12/22 12:43:58;;;;;;;;;;;;;;;18.35;48.88;100319.00;5102346;27;19971;-59
2022/12/22 12:46:43;;;;;;;;;;;;;;;18.34;48.85;100325.63;5123313;27;19939;-58
2022/12/22 12:49:29;;;;;;;;;;;;;;;18.33;48.73;100327.56;5103565;27;19974;-59
2022/12/22 12:51:54;;;;;;;;;;;;;;;18.40;49.07;100318.97;5111223;27;19976;-59
2022/12/22 12:54:21;;;;;;;;;;;;;;;18.38;49.02;100319.25;5123967;28;19949;-58
2022/12/22 12:57:06;;;;;;;;;;;;;;;18.38;48.96;100312.91;5116223;27;20268;-58
2022/12/22 13:02:33;;;;;;;;;;;;;;;18.37;48.76;100314.84;5161465;27;19929;-56
2022/12/22 13:05:01;;;;;;;;;;;;;;;18.37;48.98;100301.06;5108432;28;19973;-56
2022/12/22 13:07:47;;;;;;;;;;;;;;;18.37;49.00;100305.75;5102617;28;19966;-56
2022/12/22 13:10:17;;;;;;;;;;;;;;;18.36;48.72;100293.09;5104246;28;19958;-56
2022/12/22 13:12:51;;;;;;;;;;;;;;;18.37;48.81;100303.00;5117025;27;19924;-57
2022/12/22 13:15:32;;;;;;;;;;;;;;;18.37;48.60;100314.03;5118297;27;19932;-56
2022/12/22 13:17:59;;;;;;;;;;;;;;;18.37;48.54;100314.84;5101606;27;21365;-56
2022/12/22 13:20:26;;;;;;;;;;;;;;;18.36;48.63;100313.22;5098778;28;19934;-55
2022/12/22 13:22:53;;;;;;;;;;;;;;;18.37;48.50;100317.59;5119585;28;19932;-56
2022/12/22 13:25:18;;;;;;;;;;;;;;;18.38;48.73;100312.91;5100397;27;19971;-56
2022/12/22 13:27:44;;;;;;;;;;;;;;;18.37;48.51;100309.34;5116404;27;19954;-55
2022/12/22 13:30:13;;;;;;;;;;;;;;;18.38;48.43;100315.66;5101103;28;19935;-57
2022/12/22 13:32:39;;;;;;;;;;;;;;;18.38;48.45;100310.97;5120154;27;20364;-56
2022/12/22 13:35:25;;;;;;;;;;;;;;;18.38;48.68;100323.94;5120484;28;20015;-57
2022/12/22 13:38:01;;;;;;;;;;;;;;;18.38;48.43;100322.00;5104235;28;19945;-57
2022/12/22 13:40:29;;;;;;;;;;;;;;;18.39;48.38;100320.06;5132455;27;20366;-57
2022/12/22 13:42:56;;;;;;;;;;;;;;;18.41;48.44;100326.13;5125072;27;19962;-56
2022/12/22 13:45:25;;;;;;;;;;;;;;;18.41;48.38;100323.38;5115479;28;19967;-56
2022/12/22 13:47:50;;;;;;;;;;;;;;;18.41;48.51;100328.88;5102914;28;19928;-57
2022/12/22 13:50:17;;;;;;;;;;;;;;;18.40;48.51;100324.50;5114348;28;19928;-57
2022/12/22 13:52:42;;;;;;;;;;;;;;;18.40;48.40;100339.09;5102461;28;20356;-57
2022/12/22 13:55:11;;;;;;;;;;;;;;;18.40;48.43;100330.81;5121483;28;19923;-57
2022/12/22 13:57:36;;;;;;;;;;;;;;;18.41;48.34;100339.91;5102615;28;19958;-57
2022/12/22 14:00:02;;;;;;;;;;;;;;;18.41;48.26;100337.16;5121228;28;20272;-57
2022/12/22 14:02:30;;;;;;;;;;;;;;;18.40;48.17;100328.06;5121734;27;20020;-57
2022/12/22 14:05:04;;;;;;;;;;;;;;;18.41;48.31;100337.97;5122646;28;20435;-56
2022/12/22 14:07:30;;;;;;;;;;;;;;;18.40;48.46;100328.06;5122839;28;19984;-57
2022/12/22 14:09:55;;;;;;;;;;;;;;;18.41;48.41;100326.94;5120200;28;19923;-57
2022/12/22 14:12:23;;;;;;;;;;;;;;;18.42;48.21;100328.59;5097305;28;19928;-57
2022/12/22 14:14:49;;;;;;;;;;;;;;;18.41;48.40;100317.84;5109051;28;19932;-57
2022/12/22 14:17:23;;;;;;;;;;;;;;;18.42;48.14;100331.34;5106282;28;20367;-56
2022/12/22 14:19:50;;;;;;;;;;;;;;;18.41;48.34;100326.94;5089196;28;19928;-56
2022/12/22 14:22:17;;;;;;;;;;;;;;;18.43;48.16;100326.66;5089880;28;19924;-57
2022/12/22 14:24:44;;;;;;;;;;;;;;;18.41;48.39;100320.63;5103671;28;20441;-57
2022/12/22 14:27:17;;;;;;;;;;;;;;;18.42;48.08;100322.25;5107670;28;19954;-56
2022/12/22 14:29:43;;;;;;;;;;;;;;;18.42;48.25;100323.06;5090332;28;19974;-56
2022/12/22 14:32:09;;;;;;;;;;;;;;;18.42;48.13;100320.31;5109162;28;19924;-57
2022/12/22 14:34:34;;;;;;;;;;;;;;;18.43;48.33;100315.63;5113404;28;19924;-54
2022/12/22 14:37:00;;;;;;;;;;;;;;;18.42;48.25;100320.31;5107332;28;19924;-56
2022/12/22 14:39:29;;;;;;;;;;;;;;;18.44;48.14;100333.81;5090689;28;20216;-57
2022/12/22 14:41:55;;;;;;;;;;;;;;;18.44;48.20;100322.78;5089539;28;20154;-57
2022/12/22 14:49:49;;;;;;;;;;;;;;;18.43;48.05;100310.91;5197514;27;19925;-56
2022/12/22 14:52:17;;;;;;;;;;;;;;;18.43;47.99;100294.38;5171510;27;19972;-55
2022/12/22 14:54:44;;;;;;;;;;;;;;;18.43;48.21;100299.06;5163458;27;20387;-56
2022/12/22 14:57:10;;;;;;;;;;;;;;;18.43;48.03;100288.03;5169677;27;19923;-56
2022/12/22 14:59:42;;;;;;;;;;;;;;;18.42;48.02;100283.66;5187757;27;19926;-56
2022/12/22 15:02:27;;;;;;;;;;;;;;;18.41;47.99;100285.59;5175839;27;19927;-56
2022/12/22 15:05:20;;;;;;;;;;;;;;;18.42;48.13;100276.19;5131857;27;19928;-56
2022/12/22 15:07:47;;;;;;;;;;;;;;;18.42;48.16;100278.13;5130733;27;20404;-56
2022/12/22 15:10:40;;;;;;;;;;;;;;;18.42;47.99;100289.16;5129926;27;20316;-55
2022/12/22 15:13:09;;;;;;;;;;;;;;;18.41;48.16;100273.75;5127743;27;20027;-56
2022/12/22 15:15:35;;;;;;;;;;;;;;;18.41;48.13;100269.06;5146329;27;19982;-56
2022/12/22 15:18:01;;;;;;;;;;;;;;;18.41;47.90;100266.28;5146121;27;19927;-56
2022/12/22 15:20:26;;;;;;;;;;;;;;;18.40;47.95;100261.09;5127359;27;20427;-56
2022/12/22 15:22:52;;;;;;;;;;;;;;;18.40;48.07;100261.91;5145923;27;20294;-56
2022/12/22 15:25:19;;;;;;;;;;;;;;;18.40;48.04;100259.16;5146136;27;20067;-56
2022/12/22 15:27:44;;;;;;;;;;;;;;;18.41;47.99;100248.94;5148668;27;20380;-56
2022/12/22 15:30:10;;;;;;;;;;;;;;;18.41;48.11;100246.19;5166732;27;20366;-56
2022/12/22 15:32:36;;;;;;;;;;;;;;;18.40;47.85;100239.84;5146711;27;19934;-55
2022/12/22 15:35:08;;;;;;;;;;;;;;;18.39;48.04;100240.94;5163375;27;19934;-55
2022/12/22 15:37:33;;;;;;;;;;;;;;;18.40;47.87;100245.34;5166827;27;20358;-56
2022/12/22 15:39:59;;;;;;;;;;;;;;;18.39;48.02;100246.44;5166691;27;19934;-56
2022/12/22 15:42:24;;;;;;;;;;;;;;;18.40;47.89;100244.53;5166385;27;19946;-56
2022/12/22 15:44:50;;;;;;;;;;;;;;;18.40;48.07;100239.03;5166156;27;19923;-56
2022/12/22 15:47:16;;;;;;;;;;;;;;;18.40;47.69;100237.09;5162121;27;20338;-56
2022/12/22 15:49:41;;;;;;;;;;;;;;;18.39;47.88;100231.84;5153257;27;19927;-56
2022/12/22 15:52:07;;;;;;;;;;;;;;;18.39;47.87;100232.66;5166461;27;20371;-56
2022/12/22 15:54:32;;;;;;;;;;;;;;;18.38;47.98;100231.03;5166232;27;19931;-56
2022/12/22 15:56:58;;;;;;;;;;;;;;;18.38;47.93;100233.78;5166589;27;19948;-56
2022/12/22 15:59:24;;;;;;;;;;;;;;;18.38;47.94;100228.28;5162365;27;19927;-56
2022/12/22 16:01:50;;;;;;;;;;;;;;;18.38;47.82;100228.28;5152405;27;20330;-56
2022/12/22 16:04:24;;;;;;;;;;;;;;;18.38;47.96;100213.66;5152318;27;20017;-55
2022/12/22 16:06:50;;;;;;;;;;;;;;;18.37;47.77;100218.38;5152294;27;20301;-55
2022/12/22 16:09:17;;;;;;;;;;;;;;;18.37;47.95;100210.09;5152069;27;19927;-56
2022/12/22 16:11:43;;;;;;;;;;;;;;;18.37;47.77;100206.53;5150600;27;20371;-56
2022/12/22 16:14:09;;;;;;;;;;;;;;;18.37;47.75;100210.09;5152237;27;20367;-55
2022/12/22 16:16:34;;;;;;;;;;;;;;;18.37;47.90;100201.81;5151548;27;20382;-56
2022/12/22 16:19:00;;;;;;;;;;;;;;;18.37;47.94;100199.06;5152031;27;19952;-55
2022/12/22 16:21:27;;;;;;;;;;;;;;;18.38;47.67;100197.13;5152109;27;19923;-55
2022/12/22 16:23:54;;;;;;;;;;;;;;;18.37;47.71;100193.56;5151163;27;19926;-55
2022/12/22 16:26:20;;;;;;;;;;;;;;;18.37;47.60;100189.97;5151319;27;19938;-55
2022/12/22 16:28:45;;;;;;;;;;;;;;;18.37;47.96;100184.47;5132240;27;19927;-55